sensor_id;sensor_type;location;lat;lon;timestamp;pressure;altitude;pressure_sealevel;temperature;humidity
70323;BME280;57735;56.264;43.898;2023-04-15T00:02:17;102107.25;;;-0.65;27.98
70323;BME280;57735;56.264;43.898;2023-04-15T00:04:50;102108.97;;;-0.64;28.14
70323;BME280;57735;56.264;43.898;2023-04-15T00:07:20;102112.53;;;-0.67;27.91
70323;BME280;57735;56.264;43.898;2023-04-15T00:09:54;102104.75;;;-0.68;28.15
70323;BME280;57735;56.264;43.898;2023-04-15T00:12:27;102111.69;;;-0.67;28.38
70323;BME280;57735;56.264;43.898;2023-04-15T00:15:00;102105.69;;;-0.71;28.41
70323;BME280;57735;56.264;43.898;2023-04-15T00:17:31;102104.00;;;-0.74;28.14
70323;BME280;57735;56.264;43.898;2023-04-15T00:20:02;102110.16;;;-0.76;28.51
70323;BME280;57735;56.264;43.898;2023-04-15T00:22:35;102112.84;;;-0.79;28.94
70323;BME280;57735;56.264;43.898;2023-04-15T00:25:08;102117.22;;;-0.80;28.83
70323;BME280;57735;56.264;43.898;2023-04-15T00:27:39;102117.22;;;-0.80;29.29
70323;BME280;57735;56.264;43.898;2023-04-15T00:30:10;102123.50;;;-0.85;29.38
70323;BME280;57735;56.264;43.898;2023-04-15T00:32:40;102126.25;;;-0.91;29.30
70323;BME280;57735;56.264;43.898;2023-04-15T00:35:14;102124.56;;;-0.94;29.92
70323;BME280;57735;56.264;43.898;2023-04-15T00:37:52;102115.88;;;-0.96;29.97
70323;BME280;57735;56.264;43.898;2023-04-15T00:40:28;102129.91;;;-0.98;29.37
70323;BME280;57735;56.264;43.898;2023-04-15T00:43:01;102122.91;;;-0.98;29.32
70323;BME280;57735;56.264;43.898;2023-04-15T00:45:33;102126.44;;;-0.99;29.47
70323;BME280;57735;56.264;43.898;2023-04-15T00:48:04;102129.91;;;-0.98;29.39
70323;BME280;57735;56.264;43.898;2023-04-15T00:50:37;102125.63;;;-1.01;29.55
70323;BME280;57735;56.264;43.898;2023-04-15T00:53:10;102129.16;;;-1.02;29.27
70323;BME280;57735;56.264;43.898;2023-04-15T00:55:40;102130.00;;;-1.01;29.96
70323;BME280;57735;56.264;43.898;2023-04-15T00:58:11;102132.63;;;-1.01;29.97
70323;BME280;57735;56.264;43.898;2023-04-15T01:00:42;102146.63;;;-1.04;29.68
70323;BME280;57735;56.264;43.898;2023-04-15T01:03:12;102141.47;;;-1.07;29.92
70323;BME280;57735;56.264;43.898;2023-04-15T01:05:46;102142.34;;;-1.07;29.55
70323;BME280;57735;56.264;43.898;2023-04-15T01:08:18;102138.88;;;-1.09;30.04
70323;BME280;57735;56.264;43.898;2023-04-15T01:10:53;102145.97;;;-1.14;29.91
70323;BME280;57735;56.264;43.898;2023-04-15T01:13:27;102144.34;;;-1.18;30.63
70323;BME280;57735;56.264;43.898;2023-04-15T01:15:58;102147.78;;;-1.17;29.94
70323;BME280;57735;56.264;43.898;2023-04-15T01:18:29;102151.38;;;-1.20;30.46
70323;BME280;57735;56.264;43.898;2023-04-15T01:21:02;102145.28;;;-1.20;30.11
70323;BME280;57735;56.264;43.898;2023-04-15T01:23:39;102150.56;;;-1.23;30.28
70323;BME280;57735;56.264;43.898;2023-04-15T01:26:10;102154.94;;;-1.24;30.22
70323;BME280;57735;56.264;43.898;2023-04-15T01:28:42;102149.66;;;-1.21;30.44
70323;BME280;57735;56.264;43.898;2023-04-15T01:31:16;102162.78;;;-1.24;30.62
70323;BME280;57735;56.264;43.898;2023-04-15T01:33:49;102157.56;;;-1.24;30.55
70323;BME280;57735;56.264;43.898;2023-04-15T01:36:39;102168.06;;;-1.25;30.54
70323;BME280;57735;56.264;43.898;2023-04-15T01:39:11;102169.84;;;-1.27;30.72
70323;BME280;57735;56.264;43.898;2023-04-15T01:41:42;102171.66;;;-1.31;30.79
70323;BME280;57735;56.264;43.898;2023-04-15T01:44:14;102177.78;;;-1.32;30.91
70323;BME280;57735;56.264;43.898;2023-04-15T01:46:46;102181.22;;;-1.30;30.55
70323;BME280;57735;56.264;43.898;2023-04-15T01:49:20;102174.34;;;-1.34;30.89
70323;BME280;57735;56.264;43.898;2023-04-15T01:51:52;102179.53;;;-1.32;30.64
70323;BME280;57735;56.264;43.898;2023-04-15T01:54:24;102178.69;;;-1.33;30.48
70323;BME280;57735;56.264;43.898;2023-04-15T01:56:59;102181.22;;;-1.30;30.58
70323;BME280;57735;56.264;43.898;2023-04-15T01:59:34;102183.84;;;-1.30;30.57
70323;BME280;57735;56.264;43.898;2023-04-15T02:02:06;102189.94;;;-1.29;30.81
70323;BME280;57735;56.264;43.898;2023-04-15T02:04:38;102187.38;;;-1.32;30.90
70323;BME280;57735;56.264;43.898;2023-04-15T02:07:12;102189.13;;;-1.33;30.96
70323;BME280;57735;56.264;43.898;2023-04-15T02:09:45;102191.75;;;-1.33;30.92
70323;BME280;57735;56.264;43.898;2023-04-15T02:12:22;102188.19;;;-1.29;30.63
70323;BME280;57735;56.264;43.898;2023-04-15T02:14:54;102197.75;;;-1.28;30.49
70323;BME280;57735;56.264;43.898;2023-04-15T02:17:26;102191.69;;;-1.30;30.83
70323;BME280;57735;56.264;43.898;2023-04-15T02:20:00;102196.03;;;-1.29;30.84
70323;BME280;57735;56.264;43.898;2023-04-15T02:22:43;102206.47;;;-1.27;30.95
70323;BME280;57735;56.264;43.898;2023-04-15T02:25:17;102210.78;;;-1.25;30.65
70323;BME280;57735;56.264;43.898;2023-04-15T02:27:53;102210.78;;;-1.25;31.02
70323;BME280;57735;56.264;43.898;2023-04-15T02:30:28;102211.63;;;-1.24;30.81
70323;BME280;57735;56.264;43.898;2023-04-15T02:33:00;102219.44;;;-1.23;30.83
70323;BME280;57735;56.264;43.898;2023-04-15T02:35:39;102208.13;;;-1.23;30.58
70323;BME280;57735;56.264;43.898;2023-04-15T02:38:14;102226.47;;;-1.25;31.04
70323;BME280;57735;56.264;43.898;2023-04-15T02:40:48;102224.69;;;-1.23;31.17
70323;BME280;57735;56.264;43.898;2023-04-15T02:43:23;102226.41;;;-1.22;31.02
70323;BME280;57735;56.264;43.898;2023-04-15T02:45:57;102238.47;;;-1.16;31.09
70323;BME280;57735;56.264;43.898;2023-04-15T02:48:31;102239.44;;;-1.19;30.89
70323;BME280;57735;56.264;43.898;2023-04-15T02:51:12;102243.72;;;-1.16;30.95
70323;BME280;57735;56.264;43.898;2023-04-15T02:53:48;102245.41;;;-1.14;31.05
70323;BME280;57735;56.264;43.898;2023-04-15T02:56:27;102256.69;;;-1.12;31.08
70323;BME280;57735;56.264;43.898;2023-04-15T02:59:00;102253.09;;;-1.06;30.82
70323;BME280;57735;56.264;43.898;2023-04-15T03:01:32;102256.59;;;-1.06;30.63
70323;BME280;57735;56.264;43.898;2023-04-15T03:04:04;102266.19;;;-1.06;30.80
70323;BME280;57735;56.264;43.898;2023-04-15T03:06:35;102259.22;;;-1.07;30.54
70323;BME280;57735;56.264;43.898;2023-04-15T03:09:10;102260.06;;;-1.05;30.96
70323;BME280;57735;56.264;43.898;2023-04-15T03:11:44;102257.31;;;-1.00;30.79
70323;BME280;57735;56.264;43.898;2023-04-15T03:14:19;102268.59;;;-0.97;30.95
70323;BME280;57735;56.264;43.898;2023-04-15T03:16:51;102268.53;;;-0.94;30.94
70323;BME280;57735;56.264;43.898;2023-04-15T03:19:27;102272.84;;;-0.91;30.40
70323;BME280;57735;56.264;43.898;2023-04-15T03:21:59;102271.00;;;-0.88;30.74
70323;BME280;57735;56.264;43.898;2023-04-15T03:24:34;102277.84;;;-0.82;30.69
70323;BME280;57735;56.264;43.898;2023-04-15T03:27:05;102274.28;;;-0.78;30.53
70323;BME280;57735;56.264;43.898;2023-04-15T03:29:38;102278.63;;;-0.77;30.29
70323;BME280;57735;56.264;43.898;2023-04-15T03:32:13;102281.16;;;-0.74;30.35
70323;BME280;57735;56.264;43.898;2023-04-15T03:34:45;102277.56;;;-0.68;30.54
70323;BME280;57735;56.264;43.898;2023-04-15T03:37:17;102293.22;;;-0.67;30.04
70323;BME280;57735;56.264;43.898;2023-04-15T03:39:49;102284.53;;;-0.67;29.95
70323;BME280;57735;56.264;43.898;2023-04-15T03:42:23;102288.03;;;-0.68;29.54
70323;BME280;57735;56.264;43.898;2023-04-15T03:44:54;102292.31;;;-0.66;29.80
70323;BME280;57735;56.264;43.898;2023-04-15T03:47:26;102300.09;;;-0.63;29.96
70323;BME280;57735;56.264;43.898;2023-04-15T03:49:58;102293.88;;;-0.57;29.53
70323;BME280;57735;56.264;43.898;2023-04-15T03:52:30;102302.41;;;-0.49;30.05
70323;BME280;57735;56.264;43.898;2023-04-15T03:55:04;102300.56;;;-0.46;29.79
70323;BME280;57735;56.264;43.898;2023-04-15T03:57:37;102311.00;;;-0.43;29.38
70323;BME280;57735;56.264;43.898;2023-04-15T04:00:09;102304.72;;;-0.36;29.22
70323;BME280;57735;56.264;43.898;2023-04-15T04:02:41;102303.69;;;-0.30;29.20
70323;BME280;57735;56.264;43.898;2023-04-15T04:05:16;102314.84;;;-0.22;29.59
70323;BME280;57735;56.264;43.898;2023-04-15T04:07:48;102314.81;;;-0.20;29.59
70323;BME280;57735;56.264;43.898;2023-04-15T04:10:21;102323.59;;;-0.21;29.35
70323;BME280;57735;56.264;43.898;2023-04-15T04:13:04;102329.56;;;-0.16;29.22
70323;BME280;57735;56.264;43.898;2023-04-15T04:15:36;102322.38;;;-0.08;28.80
70323;BME280;57735;56.264;43.898;2023-04-15T04:18:10;102332.84;;;-0.08;29.36
70323;BME280;57735;56.264;43.898;2023-04-15T04:20:43;102330.94;;;0.00;29.15
70323;BME280;57735;56.264;43.898;2023-04-15T04:23:14;102318.44;;;0.10;28.78
70323;BME280;57735;56.264;43.898;2023-04-15T04:25:46;102326.91;;;0.19;28.32
70323;BME280;57735;56.264;43.898;2023-04-15T04:28:18;102327.59;;;0.27;28.35
70323;BME280;57735;56.264;43.898;2023-04-15T04:30:50;102327.59;;;0.27;28.12
70323;BME280;57735;56.264;43.898;2023-04-15T04:33:22;102338.75;;;0.34;27.93
70323;BME280;57735;56.264;43.898;2023-04-15T04:35:53;102339.31;;;0.47;27.95
70323;BME280;57735;56.264;43.898;2023-04-15T04:38:28;102338.28;;;0.52;28.26
70323;BME280;57735;56.264;43.898;2023-04-15T04:40:59;102338.13;;;0.58;27.97
70323;BME280;57735;56.264;43.898;2023-04-15T04:43:31;102345.00;;;0.62;27.41
70323;BME280;57735;56.264;43.898;2023-04-15T04:46:03;102344.78;;;0.70;27.61
70323;BME280;57735;56.264;43.898;2023-04-15T04:48:35;102346.41;;;0.74;27.13
70323;BME280;57735;56.264;43.898;2023-04-15T04:51:06;102341.16;;;0.74;26.80
70323;BME280;57735;56.264;43.898;2023-04-15T04:53:38;102347.31;;;0.73;26.94
70323;BME280;57735;56.264;43.898;2023-04-15T04:56:10;102348.97;;;0.77;27.41
70323;BME280;57735;56.264;43.898;2023-04-15T04:58:42;102353.00;;;0.89;27.28
70323;BME280;57735;56.264;43.898;2023-04-15T05:01:16;102344.09;;;0.94;26.92
70323;BME280;57735;56.264;43.898;2023-04-15T05:03:47;102346.72;;;0.94;27.08
70323;BME280;57735;56.264;43.898;2023-04-15T05:06:19;102350.19;;;0.96;26.79
70323;BME280;57735;56.264;43.898;2023-04-15T05:08:54;102350.84;;;1.03;26.82
70323;BME280;57735;56.264;43.898;2023-04-15T05:11:27;102352.31;;;1.13;26.59
70323;BME280;57735;56.264;43.898;2023-04-15T05:14:01;102349.41;;;1.22;26.26
70323;BME280;57735;56.264;43.898;2023-04-15T05:16:35;102359.69;;;1.30;26.29
70323;BME280;57735;56.264;43.898;2023-04-15T05:19:07;102353.63;;;1.28;26.29
70323;BME280;57735;56.264;43.898;2023-04-15T05:21:38;102352.63;;;1.32;26.69
70323;BME280;57735;56.264;43.898;2023-04-15T05:24:10;102362.03;;;1.39;26.27
70323;BME280;57735;56.264;43.898;2023-04-15T05:26:42;102366.97;;;1.50;26.15
70323;BME280;57735;56.264;43.898;2023-04-15T05:29:17;102367.75;;;1.52;25.58
70323;BME280;57735;56.264;43.898;2023-04-15T05:31:48;102373.78;;;1.55;25.62
70323;BME280;57735;56.264;43.898;2023-04-15T05:34:28;102370.91;;;1.64;25.65
70323;BME280;57735;56.264;43.898;2023-04-15T05:37:00;102368.97;;;1.69;25.15
70323;BME280;57735;56.264;43.898;2023-04-15T05:39:35;102363.53;;;1.75;25.02
70323;BME280;57735;56.264;43.898;2023-04-15T05:42:06;102357.31;;;1.78;25.18
70323;BME280;57735;56.264;43.898;2023-04-15T05:44:41;102379.97;;;1.82;25.37
70323;BME280;57735;56.264;43.898;2023-04-15T05:47:13;102373.66;;;1.88;25.20
70323;BME280;57735;56.264;43.898;2023-04-15T05:49:44;102379.44;;;1.99;24.99
70323;BME280;57735;56.264;43.898;2023-04-15T05:52:19;102368.88;;;2.00;24.65
70323;BME280;57735;56.264;43.898;2023-04-15T05:54:53;102360.72;;;2.08;25.00
70323;BME280;57735;56.264;43.898;2023-04-15T05:57:30;102366.41;;;2.21;24.87
70323;BME280;57735;56.264;43.898;2023-04-15T06:00:04;102359.00;;;2.33;24.54
70323;BME280;57735;56.264;43.898;2023-04-15T06:02:36;102364.75;;;2.44;24.36
70323;BME280;57735;56.264;43.898;2023-04-15T06:05:13;102367.94;;;2.53;24.41
70323;BME280;57735;56.264;43.898;2023-04-15T06:07:47;102380.09;;;2.57;24.13
70323;BME280;57735;56.264;43.898;2023-04-15T06:10:20;102378.19;;;2.62;23.64
70323;BME280;57735;56.264;43.898;2023-04-15T06:12:54;102375.44;;;2.65;23.61
70323;BME280;57735;56.264;43.898;2023-04-15T06:15:26;102376.16;;;2.68;23.69
70323;BME280;57735;56.264;43.898;2023-04-15T06:18:00;102379.91;;;2.63;22.95
70323;BME280;57735;56.264;43.898;2023-04-15T06:20:32;102377.16;;;2.66;23.18
70323;BME280;57735;56.264;43.898;2023-04-15T06:23:09;102375.81;;;2.79;23.69
70323;BME280;57735;56.264;43.898;2023-04-15T06:25:43;102380.50;;;2.94;23.58
70323;BME280;57735;56.264;43.898;2023-04-15T06:28:15;102385.50;;;3.02;23.40
70323;BME280;57735;56.264;43.898;2023-04-15T06:30:55;102373.81;;;3.09;23.08
70323;BME280;57735;56.264;43.898;2023-04-15T06:33:27;102380.91;;;3.07;22.82
70323;BME280;57735;56.264;43.898;2023-04-15T06:35:59;102394.75;;;3.13;23.17
70323;BME280;57735;56.264;43.898;2023-04-15T06:38:36;102385.81;;;3.18;23.13
70323;BME280;57735;56.264;43.898;2023-04-15T06:41:08;102382.19;;;3.20;23.19
70323;BME280;57735;56.264;43.898;2023-04-15T06:43:42;102383.63;;;3.29;23.17
70323;BME280;57735;56.264;43.898;2023-04-15T06:46:15;102385.91;;;3.38;22.71
70323;BME280;57735;56.264;43.898;2023-04-15T06:48:52;102381.97;;;3.49;22.73
70323;BME280;57735;56.264;43.898;2023-04-15T06:51:24;102375.19;;;3.42;22.39
70323;BME280;57735;56.264;43.898;2023-04-15T06:53:55;102368.81;;;3.48;22.66
70323;BME280;57735;56.264;43.898;2023-04-15T06:56:30;102370.19;;;3.58;22.66
70323;BME280;57735;56.264;43.898;2023-04-15T06:59:01;102376.25;;;3.60;22.21
70323;BME280;57735;56.264;43.898;2023-04-15T07:01:34;102378.84;;;3.62;22.29
70323;BME280;57735;56.264;43.898;2023-04-15T07:04:08;102379.19;;;3.74;22.26
70323;BME280;57735;56.264;43.898;2023-04-15T07:06:42;102381.59;;;3.80;21.88
70323;BME280;57735;56.264;43.898;2023-04-15T07:09:15;102381.97;;;3.93;22.20
70323;BME280;57735;56.264;43.898;2023-04-15T07:11:49;102381.00;;;3.96;21.61
70323;BME280;57735;56.264;43.898;2023-04-15T07:14:21;102390.34;;;4.03;21.98
70323;BME280;57735;56.264;43.898;2023-04-15T07:16:53;102380.66;;;4.03;21.13
70323;BME280;57735;56.264;43.898;2023-04-15T07:19:27;102383.97;;;4.08;20.97
70323;BME280;57735;56.264;43.898;2023-04-15T07:21:59;102377.66;;;4.12;21.29
70323;BME280;57735;56.264;43.898;2023-04-15T07:24:31;102375.47;;;4.22;20.95
70323;BME280;57735;56.264;43.898;2023-04-15T07:27:03;102387.88;;;4.20;20.96
70323;BME280;57735;56.264;43.898;2023-04-15T07:29:34;102382.88;;;4.14;20.82
70323;BME280;57735;56.264;43.898;2023-04-15T07:32:06;102374.84;;;4.17;21.09
70323;BME280;57735;56.264;43.898;2023-04-15T07:34:45;102378.56;;;4.33;20.98
70323;BME280;57735;56.264;43.898;2023-04-15T07:37:20;102376.97;;;4.49;20.97
70323;BME280;57735;56.264;43.898;2023-04-15T07:39:51;102376.31;;;4.65;20.68
70323;BME280;57735;56.264;43.898;2023-04-15T07:42:23;102371.66;;;4.70;20.74
70323;BME280;57735;56.264;43.898;2023-04-15T07:44:55;102388.91;;;4.78;20.88
70323;BME280;57735;56.264;43.898;2023-04-15T07:47:31;102378.00;;;4.86;19.90
70323;BME280;57735;56.264;43.898;2023-04-15T07:50:06;102375.16;;;4.90;20.08
70323;BME280;57735;56.264;43.898;2023-04-15T07:52:39;102376.69;;;4.96;20.24
70323;BME280;57735;56.264;43.898;2023-04-15T07:55:11;102389.75;;;4.99;20.11
70323;BME280;57735;56.264;43.898;2023-04-15T07:57:42;102380.13;;;4.98;19.99
70323;BME280;57735;56.264;43.898;2023-04-15T08:00:16;102373.78;;;5.02;20.04
70323;BME280;57735;56.264;43.898;2023-04-15T08:02:48;102368.63;;;4.99;19.78
70323;BME280;57735;56.264;43.898;2023-04-15T08:05:20;102377.91;;;5.08;19.72
70323;BME280;57735;56.264;43.898;2023-04-15T08:07:57;102375.56;;;5.20;19.99
70323;BME280;57735;56.264;43.898;2023-04-15T08:10:29;102372.56;;;5.28;19.52
70323;BME280;57735;56.264;43.898;2023-04-15T08:13:01;102376.72;;;5.34;19.47
70323;BME280;57735;56.264;43.898;2023-04-15T08:15:33;102368.41;;;5.22;19.20
70323;BME280;57735;56.264;43.898;2023-04-15T08:18:06;102374.34;;;5.28;19.55
70323;BME280;57735;56.264;43.898;2023-04-15T08:20:41;102361.47;;;5.39;19.01
70323;BME280;57735;56.264;43.898;2023-04-15T08:23:13;102372.56;;;5.47;19.01
70323;BME280;57735;56.264;43.898;2023-04-15T08:25:45;102359.41;;;5.64;19.20
70323;BME280;57735;56.264;43.898;2023-04-15T08:28:28;102360.19;;;5.66;19.00
70323;BME280;57735;56.264;43.898;2023-04-15T08:31:00;102365.34;;;5.69;18.60
70323;BME280;57735;56.264;43.898;2023-04-15T08:33:34;102358.47;;;5.65;18.75
70323;BME280;57735;56.264;43.898;2023-04-15T08:36:06;102362.78;;;5.68;19.19
70323;BME280;57735;56.264;43.898;2023-04-15T08:38:38;102369.47;;;5.75;18.73
70323;BME280;57735;56.264;43.898;2023-04-15T08:41:20;102355.31;;;5.76;18.90
70323;BME280;57735;56.264;43.898;2023-04-15T08:43:56;102363.19;;;5.77;18.46
70323;BME280;57735;56.264;43.898;2023-04-15T08:46:28;102353.09;;;5.85;18.67
70323;BME280;57735;56.264;43.898;2023-04-15T08:49:03;102357.34;;;5.88;18.38
70323;BME280;57735;56.264;43.898;2023-04-15T08:51:40;102366.75;;;5.95;18.54
70323;BME280;57735;56.264;43.898;2023-04-15T08:54:15;102362.63;;;5.88;18.20
70323;BME280;57735;56.264;43.898;2023-04-15T08:56:50;102358.75;;;5.97;18.75
70323;BME280;57735;56.264;43.898;2023-04-15T08:59:23;102352.91;;;6.07;18.44
70323;BME280;57735;56.264;43.898;2023-04-15T09:02:04;102363.28;;;6.12;18.41
70323;BME280;57735;56.264;43.898;2023-04-15T09:04:39;102353.41;;;6.15;18.57
70323;BME280;57735;56.264;43.898;2023-04-15T09:07:11;102344.13;;;6.24;18.67
70323;BME280;57735;56.264;43.898;2023-04-15T09:09:46;102350.19;;;6.43;18.78
70323;BME280;57735;56.264;43.898;2023-04-15T09:12:21;102342.66;;;6.53;18.15
70323;BME280;57735;56.264;43.898;2023-04-15T09:14:55;102347.59;;;6.59;17.58
70323;BME280;57735;56.264;43.898;2023-04-15T09:17:30;102344.56;;;6.67;18.37
70323;BME280;57735;56.264;43.898;2023-04-15T09:20:10;102352.66;;;6.81;18.21
70323;BME280;57735;56.264;43.898;2023-04-15T09:22:44;102358.19;;;6.76;17.91
70323;BME280;57735;56.264;43.898;2023-04-15T09:28:01;102347.13;;;6.85;18.28
70323;BME280;57735;56.264;43.898;2023-04-15T09:30:33;102341.38;;;6.93;18.28
70323;BME280;57735;56.264;43.898;2023-04-15T09:33:07;102337.47;;;7.00;18.10
70323;BME280;57735;56.264;43.898;2023-04-15T09:35:41;102331.03;;;7.04;18.16
70323;BME280;57735;56.264;43.898;2023-04-15T09:38:26;102331.66;;;7.09;18.74
70323;BME280;57735;56.264;43.898;2023-04-15T09:41:03;102331.75;;;7.08;18.17
70323;BME280;57735;56.264;43.898;2023-04-15T09:43:51;102333.28;;;7.12;18.35
70323;BME280;57735;56.264;43.898;2023-04-15T09:46:44;102332.91;;;7.19;18.22
70323;BME280;57735;56.264;43.898;2023-04-15T09:49:16;102343.44;;;7.37;18.61
70323;BME280;57735;56.264;43.898;2023-04-15T09:51:48;102343.69;;;7.48;17.97
70323;BME280;57735;56.264;43.898;2023-04-15T09:54:23;102338.03;;;7.54;17.97
70323;BME280;57735;56.264;43.898;2023-04-15T09:57:03;102349.75;;;7.50;18.03
70323;BME280;57735;56.264;43.898;2023-04-15T09:59:35;102352.13;;;7.39;17.75
70323;BME280;57735;56.264;43.898;2023-04-15T10:02:10;102341.97;;;7.31;18.06
70323;BME280;57735;56.264;43.898;2023-04-15T10:04:43;102342.38;;;7.39;18.56
70323;BME280;57735;56.264;43.898;2023-04-15T10:07:16;102334.53;;;7.53;18.72
70323;BME280;57735;56.264;43.898;2023-04-15T10:09:53;102338.63;;;7.59;18.47
70323;BME280;57735;56.264;43.898;2023-04-15T10:12:29;102338.34;;;7.79;18.69
70323;BME280;57735;56.264;43.898;2023-04-15T10:15:04;102347.69;;;7.86;17.98
70323;BME280;57735;56.264;43.898;2023-04-15T10:17:43;102344.66;;;7.92;18.46
70323;BME280;57735;56.264;43.898;2023-04-15T10:20:18;102346.06;;;7.84;18.26
70323;BME280;57735;56.264;43.898;2023-04-15T10:22:50;102344.09;;;7.87;18.40
70323;BME280;57735;56.264;43.898;2023-04-15T10:25:21;102338.00;;;7.85;17.94
70323;BME280;57735;56.264;43.898;2023-04-15T10:27:54;102343.13;;;7.88;18.22
70323;BME280;57735;56.264;43.898;2023-04-15T10:30:29;102343.97;;;7.89;18.19
70323;BME280;57735;56.264;43.898;2023-04-15T10:33:05;102332.03;;;7.82;17.98
70323;BME280;57735;56.264;43.898;2023-04-15T10:35:37;102343.72;;;7.93;18.44
70323;BME280;57735;56.264;43.898;2023-04-15T10:38:30;102329.06;;;8.02;18.36
70323;BME280;57735;56.264;43.898;2023-04-15T10:43:47;102326.44;;;8.32;18.07
70323;BME280;57735;56.264;43.898;2023-04-15T10:46:35;102316.91;;;8.28;17.52
70323;BME280;57735;56.264;43.898;2023-04-15T10:49:11;102315.19;;;8.27;17.81
70323;BME280;57735;56.264;43.898;2023-04-15T10:51:44;102316.97;;;8.42;18.03
70323;BME280;57735;56.264;43.898;2023-04-15T10:54:29;102314.41;;;8.55;18.01
70323;BME280;57735;56.264;43.898;2023-04-15T11:05:13;102304.06;;;8.93;17.63
70323;BME280;57735;56.264;43.898;2023-04-15T11:07:46;102299.78;;;8.90;17.24
70323;BME280;57735;56.264;43.898;2023-04-15T11:12:57;102310.16;;;8.81;17.27
70323;BME280;57735;56.264;43.898;2023-04-15T11:15:33;102303.50;;;8.73;17.63
70323;BME280;57735;56.264;43.898;2023-04-15T11:18:15;102298.28;;;8.72;16.87
70323;BME280;57735;56.264;43.898;2023-04-15T11:20:50;102300.56;;;8.78;17.53
70323;BME280;57735;56.264;43.898;2023-04-15T11:23:26;102295.34;;;8.77;17.20
70323;BME280;57735;56.264;43.898;2023-04-15T11:26:00;102290.69;;;8.80;17.12
70323;BME280;57735;56.264;43.898;2023-04-15T11:28:38;102285.88;;;8.87;17.37
70323;BME280;57735;56.264;43.898;2023-04-15T11:31:12;102287.66;;;9.00;17.35
70323;BME280;57735;56.264;43.898;2023-04-15T11:33:53;102286.38;;;9.06;16.90
70323;BME280;57735;56.264;43.898;2023-04-15T11:36:31;102289.28;;;9.03;16.79
70323;BME280;57735;56.264;43.898;2023-04-15T11:39:05;102277.78;;;9.02;17.24
70323;BME280;57735;56.264;43.898;2023-04-15T11:41:37;102279.06;;;9.09;17.10
70323;BME280;57735;56.264;43.898;2023-04-15T11:44:16;102270.53;;;9.19;17.00
70323;BME280;57735;56.264;43.898;2023-04-15T11:46:53;102268.22;;;9.27;17.07
70323;BME280;57735;56.264;43.898;2023-04-15T11:49:27;102269.81;;;9.29;17.27
70323;BME280;57735;56.264;43.898;2023-04-15T11:52:00;102259.47;;;9.25;16.84
70323;BME280;57735;56.264;43.898;2023-04-15T11:54:34;102264.78;;;9.25;16.95
70323;BME280;57735;56.264;43.898;2023-04-15T11:57:12;102267.06;;;9.31;17.06
70323;BME280;57735;56.264;43.898;2023-04-15T11:59:45;102289.03;;;9.34;16.97
70323;BME280;57735;56.264;43.898;2023-04-15T12:02:18;102262.78;;;9.28;16.94
70323;BME280;57735;56.264;43.898;2023-04-15T12:04:49;102251.00;;;9.32;17.67
70323;BME280;57735;56.264;43.898;2023-04-15T12:07:22;102255.31;;;9.48;17.28
70323;BME280;57735;56.264;43.898;2023-04-15T12:09:56;102254.47;;;9.47;16.66
70323;BME280;57735;56.264;43.898;2023-04-15T12:12:27;102254.56;;;9.45;16.68
70323;BME280;57735;56.264;43.898;2023-04-15T12:15:00;102245.44;;;9.50;16.75
70323;BME280;57735;56.264;43.898;2023-04-15T12:17:33;102240.44;;;9.58;17.31
70323;BME280;57735;56.264;43.898;2023-04-15T12:20:04;102239.09;;;9.65;16.70
70323;BME280;57735;56.264;43.898;2023-04-15T12:22:36;102240.91;;;9.77;16.61
70323;BME280;57735;56.264;43.898;2023-04-15T12:25:07;102227.97;;;9.85;16.56
70323;BME280;57735;56.264;43.898;2023-04-15T12:27:47;102236.81;;;9.98;17.13
70323;BME280;57735;56.264;43.898;2023-04-15T12:30:22;102243.47;;;10.18;16.45
70323;BME280;57735;56.264;43.898;2023-04-15T12:32:52;102234.63;;;10.43;16.10
70323;BME280;57735;56.264;43.898;2023-04-15T12:35:33;102223.00;;;10.69;15.98
70323;BME280;57735;56.264;43.898;2023-04-15T12:38:04;102239.75;;;11.08;15.69
70323;BME280;57735;56.264;43.898;2023-04-15T12:40:34;102225.03;;;11.74;15.33
70323;BME280;57735;56.264;43.898;2023-04-15T12:43:05;102224.75;;;12.47;14.54
70323;BME280;57735;56.264;43.898;2023-04-15T12:45:36;102221.44;;;13.21;14.28
70323;BME280;57735;56.264;43.898;2023-04-15T12:48:06;102233.50;;;13.80;13.79
70323;BME280;57735;56.264;43.898;2023-04-15T12:50:38;102242.22;;;13.72;13.42
70323;BME280;57735;56.264;43.898;2023-04-15T12:53:29;102226.56;;;13.56;13.32
70323;BME280;57735;56.264;43.898;2023-04-15T12:56:00;102234.19;;;13.61;13.45
70323;BME280;57735;56.264;43.898;2023-04-15T12:58:30;102238.38;;;13.86;13.57
70323;BME280;57735;56.264;43.898;2023-04-15T13:01:01;102232.69;;;14.00;12.98
70323;BME280;57735;56.264;43.898;2023-04-15T13:03:34;102228.19;;;14.21;13.02
70323;BME280;57735;56.264;43.898;2023-04-15T13:06:10;102233.97;;;14.47;12.81
70323;BME280;57735;56.264;43.898;2023-04-15T13:08:59;102233.59;;;14.92;12.32
70323;BME280;57735;56.264;43.898;2023-04-15T13:11:30;102223.97;;;15.39;12.37
70323;BME280;57735;56.264;43.898;2023-04-15T13:14:03;102221.88;;;15.72;12.02
70323;BME280;57735;56.264;43.898;2023-04-15T13:16:45;102231.19;;;16.06;11.86
70323;BME280;57735;56.264;43.898;2023-04-15T13:19:23;102224.28;;;16.50;11.64
70323;BME280;57735;56.264;43.898;2023-04-15T13:21:56;102227.84;;;16.88;11.06
70323;BME280;57735;56.264;43.898;2023-04-15T13:24:27;102225.78;;;17.44;11.26
70323;BME280;57735;56.264;43.898;2023-04-15T13:27:00;102218.91;;;17.50;10.80
70323;BME280;57735;56.264;43.898;2023-04-15T13:29:35;102216.69;;;17.63;10.81
70323;BME280;57735;56.264;43.898;2023-04-15T13:32:06;102222.31;;;17.52;10.58
70323;BME280;57735;56.264;43.898;2023-04-15T13:34:37;102224.13;;;17.16;10.68
70323;BME280;57735;56.264;43.898;2023-04-15T13:37:11;102212.22;;;16.08;11.11